Terminal Aerodrome Forecast
Issued by NWS

Home | Current Version | Previous Version | Text Only | Print | Product List | Glossary On
Versions: 1 2 3 4 5 6 7 8 9 10 11 12 13 14 15 16 17 18 19 20 21 22 23 24 25
000
FTUS42 KJAX 221500 AAB
TAFCRG
TAF AMD
KCRG 221538Z 2216/2312 VRB04KT P6SM VCSH SCT025 SCT250
      TEMPO 2216/2218 BKN025
     FM221800 10008KT P6SM VCTS BKN035CB
      TEMPO 2218/2222 VRB15G30KT 3SM TSRA BKN030CB
     FM230000 15004KT P6SM SCT040=

USA.gov is the U.S. government's official web portal to all federal, state and local government web resources and services.